Time;durP1;ratioP1;P1;durP2;ratioP2;P2;SDS_P1;SDS_P2;PMS_P1;PMS_P2;Temp;Humidity;BMP_temperature;BMP_pressure;BME280_temperature;BME280_humidity;BME280_pressure;Samples;Min_cycle;Max_cycle;Signal;HPM_P1;HPM_P2
2023/06/10 00:02:11;;;;;;;12.68;6.55;;;17.00;99.90;;;;;;5024554;28;20067;-73
2023/06/10 00:04:36;;;;;;;8.57;6.15;;;16.90;99.90;;;;;;5038944;28;20052;-73
2023/06/10 00:07:08;;;;;;;9.73;6.07;;;16.90;99.90;;;;;;5024374;28;20604;-73
2023/06/10 00:09:38;;;;;;;8.48;6.25;;;16.90;99.90;;;;;;5022813;28;20095;-73
2023/06/10 00:12:09;;;;;;;8.75;6.28;;;16.90;99.90;;;;;;5038857;28;20625;-73
2023/06/10 00:14:40;;;;;;;9.27;6.75;;;16.90;99.90;;;;;;5020688;28;20056;-73
2023/06/10 00:17:08;;;;;;;8.70;6.68;;;16.80;99.90;;;;;;5003499;28;20037;-73
2023/06/10 00:19:35;;;;;;;9.68;6.75;;;16.80;99.90;;;;;;5004334;28;20064;-73
2023/06/10 00:22:01;;;;;;;9.60;6.70;;;16.80;99.90;;;;;;5011228;28;20105;-73
2023/06/10 00:24:26;;;;;;;10.27;6.13;;;16.70;99.90;;;;;;5019735;28;20653;-73
2023/06/10 00:26:52;;;;;;;10.93;6.70;;;16.70;99.90;;;;;;5035974;28;20032;-73
2023/06/10 00:29:18;;;;;;;7.75;6.45;;;16.60;99.90;;;;;;5043379;28;20128;-72
2023/06/10 00:31:45;;;;;;;9.95;7.13;;;16.60;99.90;;;;;;5002838;28;20033;-73
2023/06/10 00:34:12;;;;;;;11.48;7.32;;;16.60;99.90;;;;;;5027068;28;20040;-73
2023/06/10 00:36:38;;;;;;;10.10;6.55;;;16.50;99.90;;;;;;5009225;28;20696;-73
2023/06/10 00:39:07;;;;;;;10.93;7.03;;;16.50;99.90;;;;;;5014897;28;20124;-73
2023/06/10 00:41:36;;;;;;;9.55;6.88;;;16.50;99.90;;;;;;5015091;28;20127;-73
2023/06/10 00:44:04;;;;;;;8.85;6.45;;;16.40;99.90;;;;;;5035204;28;20055;-73
2023/06/10 00:46:32;;;;;;;10.02;6.45;;;16.50;99.90;;;;;;5032383;28;20048;-73
2023/06/10 00:48:58;;;;;;;11.73;7.10;;;16.40;99.90;;;;;;5033455;28;20475;-73
2023/06/10 00:51:25;;;;;;;11.20;7.05;;;16.40;99.90;;;;;;5031475;28;20055;-73
2023/06/10 00:53:52;;;;;;;9.32;6.38;;;16.40;99.90;;;;;;5029658;28;20041;-72
2023/06/10 00:56:17;;;;;;;10.55;7.03;;;16.30;99.90;;;;;;4998892;28;20101;-73
2023/06/10 00:58:44;;;;;;;13.07;7.57;;;16.30;99.90;;;;;;5017056;28;20052;-73
2023/06/10 01:01:10;;;;;;;10.45;6.38;;;16.20;99.90;;;;;;5030167;28;20045;-73
2023/06/10 01:03:40;;;;;;;13.23;7.43;;;16.20;99.90;;;;;;5009761;28;20071;-73
2023/06/10 01:06:17;;;;;;;12.20;6.85;;;16.20;99.90;;;;;;5042833;28;20052;-73
2023/06/10 01:09:00;;;;;;;9.68;6.13;;;16.10;99.90;;;;;;5019853;28;20048;-74
2023/06/10 01:11:40;;;;;;;10.23;7.18;;;16.20;99.90;;;;;;5020501;28;20074;-73
2023/06/10 01:14:09;;;;;;;10.07;6.27;;;16.10;99.90;;;;;;5004622;28;1289941;-73
2023/06/10 01:16:36;;;;;;;8.50;6.85;;;16.00;99.90;;;;;;5058978;28;20051;-74
2023/06/10 01:19:03;;;;;;;9.32;6.35;;;16.00;99.90;;;;;;5054500;28;20063;-73
2023/06/10 01:21:30;;;;;;;11.32;7.05;;;16.00;99.90;;;;;;5075491;28;20100;-73
2023/06/10 01:23:57;;;;;;;11.43;7.15;;;16.00;99.90;;;;;;5071622;28;20048;-73
2023/06/10 01:26:32;;;;;;;9.68;7.00;;;16.00;99.90;;;;;;5076958;28;20116;-74
2023/06/10 01:29:06;;;;;;;12.07;7.20;;;16.10;99.90;;;;;;5078239;28;20044;-74
2023/06/10 01:31:54;;;;;;;9.13;6.95;;;16.00;99.90;;;;;;5076780;28;20143;-74
2023/06/10 01:34:23;;;;;;;10.55;7.68;;;16.00;99.90;;;;;;5075286;28;20539;-73
2023/06/10 01:36:50;;;;;;;9.03;6.03;;;16.00;99.90;;;;;;5077662;28;20092;-74
2023/06/10 01:39:18;;;;;;;9.45;6.72;;;16.00;99.90;;;;;;5063120;28;20448;-73
2023/06/10 01:41:44;;;;;;;9.02;6.68;;;16.00;99.90;;;;;;5076914;28;20036;-73
2023/06/10 01:44:10;;;;;;;12.98;7.30;;;16.00;99.90;;;;;;5061586;28;20488;-73
2023/06/10 01:46:36;;;;;;;11.57;7.03;;;16.00;99.90;;;;;;5076315;28;20122;-73
2023/06/10 01:49:02;;;;;;;9.32;6.45;;;15.90;99.90;;;;;;5061263;28;20043;-73
2023/06/10 01:51:28;;;;;;;11.90;7.28;;;15.90;99.90;;;;;;5069087;28;20119;-73
2023/06/10 01:53:54;;;;;;;9.15;6.88;;;15.90;99.90;;;;;;5044465;28;20063;-73
2023/06/10 01:56:20;;;;;;;9.82;7.47;;;15.90;99.90;;;;;;5046930;28;20137;-73
2023/06/10 01:58:46;;;;;;;11.38;6.45;;;15.90;99.90;;;;;;5055425;28;20043;-73
2023/06/10 02:01:12;;;;;;;11.38;7.15;;;15.80;99.90;;;;;;5059432;28;20047;-73
2023/06/10 02:03:38;;;;;;;11.90;6.60;;;15.80;99.90;;;;;;5048315;28;20036;-73
2023/06/10 02:06:04;;;;;;;10.05;7.00;;;15.80;99.90;;;;;;5072881;28;20044;-74
2023/06/10 02:08:30;;;;;;;8.57;6.30;;;15.80;99.90;;;;;;5064257;28;20040;-74
2023/06/10 02:10:56;;;;;;;9.45;6.95;;;15.70;99.90;;;;;;5087595;28;20034;-73
2023/06/10 02:13:21;;;;;;;9.52;6.80;;;15.70;99.90;;;;;;5045950;28;20090;-73
2023/06/10 02:15:47;;;;;;;9.90;7.07;;;15.60;99.90;;;;;;5060241;28;20090;-74
2023/06/10 02:18:13;;;;;;;9.55;7.63;;;15.60;99.90;;;;;;5062441;28;20082;-73
2023/06/10 02:20:39;;;;;;;12.50;7.30;;;15.60;99.90;;;;;;5073544;28;20040;-74
2023/06/10 02:23:05;;;;;;;12.13;7.53;;;15.50;99.90;;;;;;5047644;28;20075;-70
2023/06/10 02:25:30;;;;;;;11.57;7.90;;;15.50;99.90;;;;;;5062564;28;20048;-70
2023/06/10 02:27:58;;;;;;;11.20;7.47;;;15.50;99.90;;;;;;5051861;28;20039;-70
2023/06/10 02:30:30;;;;;;;14.10;7.55;;;15.40;99.90;;;;;;5030042;28;20074;-71
2023/06/10 02:32:56;;;;;;;8.18;6.38;;;15.40;99.90;;;;;;5054248;28;20131;-70
2023/06/10 02:35:25;;;;;;;10.80;6.65;;;15.40;99.90;;;;;;5054250;28;20242;-70
2023/06/10 02:37:51;;;;;;;9.18;6.70;;;15.30;99.90;;;;;;5052472;28;20084;-71
2023/06/10 02:40:16;;;;;;;9.77;6.30;;;15.30;99.90;;;;;;5037827;28;20118;-71
2023/06/10 02:42:42;;;;;;;11.50;7.03;;;15.30;99.90;;;;;;5040791;28;20061;-71
2023/06/10 02:45:08;;;;;;;10.27;7.10;;;15.20;99.90;;;;;;5061527;28;20103;-70
2023/06/10 02:47:34;;;;;;;11.02;7.10;;;15.10;99.90;;;;;;5056127;28;20082;-71
2023/06/10 02:50:00;;;;;;;11.27;7.43;;;15.10;99.90;;;;;;5020380;28;20083;-70
2023/06/10 02:52:26;;;;;;;9.48;7.05;;;15.00;99.90;;;;;;5052318;28;20059;-72
2023/06/10 02:54:52;;;;;;;10.27;6.95;;;15.00;99.90;;;;;;5066506;28;20028;-71
2023/06/10 02:57:17;;;;;;;11.82;7.45;;;15.00;99.90;;;;;;5070740;28;20040;-72
2023/06/10 02:59:43;;;;;;;11.23;7.15;;;14.90;99.90;;;;;;5020849;28;20047;-71
2023/06/10 03:02:09;;;;;;;13.38;7.70;;;14.90;99.90;;;;;;5031947;28;20080;-69
2023/06/10 03:04:37;;;;;;;12.65;7.82;;;14.80;99.90;;;;;;5034610;28;20532;-69
2023/06/10 03:07:06;;;;;;;8.88;6.60;;;14.80;99.90;;;;;;5037758;28;20424;-68
2023/06/10 03:09:33;;;;;;;11.63;7.18;;;14.70;99.90;;;;;;5035808;28;21002;-69
2023/06/10 03:12:00;;;;;;;9.43;6.38;;;14.70;99.90;;;;;;5051436;28;20710;-69
2023/06/10 03:14:26;;;;;;;10.73;7.35;;;14.70;99.90;;;;;;5017787;28;20060;-69
2023/06/10 03:16:52;;;;;;;11.73;7.72;;;14.60;99.90;;;;;;5037608;28;20048;-70
2023/06/10 03:19:18;;;;;;;11.40;7.18;;;14.60;99.90;;;;;;5051328;28;20058;-69
2023/06/10 03:21:44;;;;;;;9.18;7.22;;;14.50;99.90;;;;;;5036551;28;20059;-69
2023/06/10 03:24:10;;;;;;;11.00;7.18;;;14.50;99.90;;;;;;5019465;28;20089;-69
2023/06/10 03:26:36;;;;;;;11.27;7.60;;;14.50;99.90;;;;;;5051153;28;20038;-69
2023/06/10 03:29:02;;;;;;;11.85;7.30;;;14.50;99.90;;;;;;5051436;28;20048;-70
2023/06/10 03:31:29;;;;;;;10.10;7.32;;;14.50;99.90;;;;;;5020384;28;20048;-69
2023/06/10 03:33:55;;;;;;;10.48;7.63;;;14.40;99.90;;;;;;5052788;28;20044;-70
2023/06/10 03:36:21;;;;;;;12.20;8.02;;;14.30;99.90;;;;;;5050186;28;20083;-70
2023/06/10 03:38:46;;;;;;;11.95;6.93;;;14.30;99.90;;;;;;5053284;28;20719;-71
2023/06/10 03:41:15;;;;;;;11.18;7.22;;;14.20;99.90;;;;;;5038862;28;20555;-71
2023/06/10 03:43:44;;;;;;;11.75;7.57;;;14.20;99.90;;;;;;5035829;28;20036;-71
2023/06/10 03:46:12;;;;;;;13.32;8.18;;;14.20;99.90;;;;;;5051408;28;20772;-71
2023/06/10 03:48:39;;;;;;;10.93;7.65;;;14.20;99.90;;;;;;5017962;28;20458;-71
2023/06/10 03:51:05;;;;;;;9.48;7.55;;;14.20;99.90;;;;;;5033692;28;20758;-71
2023/06/10 03:53:31;;;;;;;13.43;7.32;;;14.20;99.90;;;;;;5021447;28;20051;-70
2023/06/10 03:55:57;;;;;;;9.60;7.70;;;14.20;99.90;;;;;;5037382;28;20058;-71
2023/06/10 03:58:23;;;;;;;12.38;7.97;;;14.20;99.90;;;;;;5041905;28;20040;-71
2023/06/10 04:00:49;;;;;;;12.30;7.90;;;14.20;99.90;;;;;;5048420;28;20054;-71
2023/06/10 04:03:15;;;;;;;10.65;7.15;;;14.10;99.90;;;;;;5047935;28;20078;-70
2023/06/10 04:05:41;;;;;;;12.15;7.63;;;14.20;99.90;;;;;;5051443;28;20040;-70
2023/06/10 04:08:13;;;;;;;11.55;8.57;;;14.20;99.90;;;;;;5036352;28;20044;-70
2023/06/10 04:10:45;;;;;;;11.63;7.75;;;14.20;99.90;;;;;;5051194;28;20055;-70
2023/06/10 04:13:10;;;;;;;12.23;7.65;;;14.20;99.90;;;;;;5034374;28;20419;-70
2023/06/10 04:15:36;;;;;;;11.05;7.65;;;14.20;99.90;;;;;;5052459;28;20185;-71
2023/06/10 04:18:02;;;;;;;11.05;7.30;;;14.20;99.90;;;;;;5018316;28;21282;-71
2023/06/10 04:20:28;;;;;;;12.40;8.40;;;14.10;99.90;;;;;;5032954;28;20068;-71
2023/06/10 04:22:54;;;;;;;10.20;7.13;;;14.20;99.90;;;;;;5051632;28;20679;-71
2023/06/10 04:25:20;;;;;;;13.52;8.10;;;14.20;99.90;;;;;;5047266;28;20114;-70
2023/06/10 04:27:46;;;;;;;11.25;7.47;;;14.20;99.90;;;;;;5035782;28;20055;-70
2023/06/10 04:30:16;;;;;;;9.52;7.32;;;14.20;99.90;;;;;;5051363;28;20048;-70
2023/06/10 04:32:45;;;;;;;14.77;8.10;;;14.20;99.90;;;;;;5016928;28;20044;-72
2023/06/10 04:35:14;;;;;;;12.65;7.95;;;14.30;99.90;;;;;;5048840;28;20055;-70
2023/06/10 04:37:41;;;;;;;11.80;7.53;;;14.30;99.90;;;;;;5017366;28;20067;-70
2023/06/10 04:40:16;;;;;;;9.73;7.63;;;14.30;99.90;;;;;;5050617;28;20055;-72
2023/06/10 04:42:53;;;;;;;15.18;8.30;;;14.40;99.90;;;;;;5021657;28;20039;-71
2023/06/10 04:45:19;;;;;;;11.32;7.70;;;14.40;99.90;;;;;;5053271;28;20082;-70
2023/06/10 04:47:45;;;;;;;11.60;8.52;;;14.50;99.90;;;;;;5051199;28;20048;-70
2023/06/10 04:50:15;;;;;;;10.57;7.82;;;14.50;99.90;;;;;;5032975;28;20137;-71
2023/06/10 04:52:45;;;;;;;;;;;14.50;99.90;;;;;;5034571;28;20127;-71
2023/06/10 04:55:10;;;;;;;13.50;7.78;;;14.50;99.90;;;;;;5032762;28;19924;-71
2023/06/10 04:57:37;;;;;;;11.32;7.90;;;14.50;99.90;;;;;;5032045;28;20040;-70
2023/06/10 05:00:05;;;;;;;12.00;7.45;;;14.60;99.90;;;;;;5048773;28;20652;-71
2023/06/10 05:02:31;;;;;;;12.40;8.13;;;14.70;99.90;;;;;;5051158;28;20048;-70
2023/06/10 05:04:57;;;;;;;12.85;8.25;;;14.70;99.90;;;;;;5048983;28;20032;-70
2023/06/10 05:07:29;;;;;;;13.82;8.10;;;14.70;99.90;;;;;;5035914;28;20040;-70
2023/06/10 05:09:55;;;;;;;12.63;8.88;;;14.80;99.90;;;;;;5050380;28;20682;-74
2023/06/10 05:12:27;;;;;;;12.15;8.15;;;14.80;99.90;;;;;;5050827;28;20052;-74
2023/06/10 05:14:53;;;;;;;14.40;8.35;;;14.80;99.90;;;;;;5045723;28;20055;-74
2023/06/10 05:17:19;;;;;;;11.40;8.32;;;14.80;99.90;;;;;;5013032;28;20595;-73
2023/06/10 05:19:44;;;;;;;10.15;7.85;;;14.90;99.90;;;;;;5039745;28;20711;-74
2023/06/10 05:22:10;;;;;;;11.32;7.95;;;15.00;99.90;;;;;;5008392;28;20763;-74
2023/06/10 05:24:36;;;;;;;12.10;7.60;;;15.00;99.90;;;;;;5025965;28;20055;-74
2023/06/10 05:27:02;;;;;;;11.00;7.00;;;15.10;99.90;;;;;;5042104;28;20232;-73
2023/06/10 05:29:28;;;;;;;12.43;7.72;;;15.20;99.90;;;;;;5024483;28;20131;-74
2023/06/10 05:32:00;;;;;;;11.90;7.95;;;15.30;99.90;;;;;;5013275;28;20085;-73
2023/06/10 05:34:25;;;;;;;15.73;8.05;;;15.30;99.90;;;;;;5041214;28;20059;-74
2023/06/10 05:36:51;;;;;;;11.88;7.43;;;15.40;99.90;;;;;;5018598;28;21282;-74
2023/06/10 05:39:17;;;;;;;12.48;7.50;;;15.50;99.90;;;;;;5039264;28;20048;-74
2023/06/10 05:41:43;;;;;;;11.95;7.40;;;15.50;99.90;;;;;;5006289;28;20475;-74
2023/06/10 05:44:09;;;;;;;11.95;6.88;;;15.60;99.90;;;;;;5042772;28;20512;-74
2023/06/10 05:46:34;;;;;;;12.40;7.40;;;15.70;99.90;;;;;;5024248;28;20032;-74
2023/06/10 05:49:00;;;;;;;10.75;7.40;;;15.80;99.90;;;;;;5042596;28;20048;-74
2023/06/10 05:51:27;;;;;;;10.70;6.85;;;15.80;99.90;;;;;;5039211;28;20534;-74
2023/06/10 05:53:53;;;;;;;12.90;7.43;;;15.90;99.90;;;;;;5023900;28;20549;-74
2023/06/10 05:56:19;;;;;;;10.88;7.05;;;16.00;99.90;;;;;;5042806;28;20048;-74
2023/06/10 05:58:44;;;;;;;11.07;6.70;;;16.00;99.90;;;;;;5040253;28;20072;-74
2023/06/10 06:01:10;;;;;;;11.98;7.72;;;16.10;99.90;;;;;;5025207;28;20051;-74
2023/06/10 06:03:36;;;;;;;12.27;6.95;;;16.10;99.90;;;;;;5026554;28;20097;-73
2023/06/10 06:06:02;;;;;;;12.45;7.43;;;16.20;99.90;;;;;;5042565;28;20041;-73
2023/06/10 06:08:28;;;;;;;11.05;7.72;;;16.30;99.90;;;;;;5024815;28;20036;-74
2023/06/10 06:10:54;;;;;;;12.65;7.35;;;16.40;99.90;;;;;;5044494;28;20062;-74
2023/06/10 06:13:20;;;;;;;13.45;7.47;;;16.40;99.90;;;;;;5024928;28;20388;-74
2023/06/10 06:15:46;;;;;;;11.65;7.20;;;16.40;99.90;;;;;;5013023;28;20044;-74
2023/06/10 06:18:14;;;;;;;10.85;7.88;;;16.50;99.90;;;;;;5026825;28;20054;-74
2023/06/10 06:20:40;;;;;;;10.10;6.80;;;16.50;99.90;;;;;;5045375;28;20722;-74
2023/06/10 06:23:08;;;;;;;12.18;7.68;;;16.60;99.90;;;;;;5028862;28;20048;-74
2023/06/10 06:25:35;;;;;;;12.32;7.15;;;16.60;99.90;;;;;;5027847;28;20085;-74
2023/06/10 06:28:01;;;;;;;10.75;7.47;;;16.60;99.90;;;;;;5044482;28;20048;-74
2023/06/10 06:30:27;;;;;;;12.30;7.07;;;16.70;99.90;;;;;;4995663;28;20049;-74
2023/06/10 06:32:53;;;;;;;10.25;6.78;;;16.70;99.90;;;;;;5041193;28;20036;-74
2023/06/10 06:35:19;;;;;;;14.13;7.25;;;16.80;99.90;;;;;;5032281;28;20044;-74
2023/06/10 06:37:45;;;;;;;12.05;7.10;;;16.90;99.90;;;;;;5024158;28;20044;-74
2023/06/10 06:40:14;;;;;;;13.20;7.10;;;16.90;99.90;;;;;;5028150;28;20112;-74
2023/06/10 06:42:40;;;;;;;11.02;7.68;;;17.00;99.90;;;;;;4999132;28;20551;-74
2023/06/10 06:45:10;;;;;;;13.05;7.13;;;17.10;99.90;;;;;;5039322;28;20048;-75
2023/06/10 06:47:36;;;;;;;11.80;7.10;;;17.20;99.90;;;;;;5027785;28;20047;-74
2023/06/10 06:50:02;;;;;;;14.93;7.63;;;17.20;99.90;;;;;;5043021;28;20371;-74
2023/06/10 06:52:28;;;;;;;13.25;7.13;;;17.30;99.90;;;;;;5046036;28;20043;-74
2023/06/10 06:54:56;;;;;;;12.63;6.90;;;17.40;99.90;;;;;;5038325;28;20134;-74
2023/06/10 06:57:23;;;;;;;11.82;6.95;;;17.50;99.90;;;;;;5044426;28;21042;-74
2023/06/10 06:59:48;;;;;;;10.55;7.10;;;17.60;99.90;;;;;;5026623;28;20094;-74
2023/06/10 07:02:14;;;;;;;11.32;6.75;;;17.60;99.90;;;;;;5044210;28;20105;-73
2023/06/10 07:04:41;;;;;;;10.43;7.50;;;17.70;99.90;;;;;;5012036;28;20059;-73
2023/06/10 07:07:09;;;;;;;10.90;6.75;;;17.80;99.90;;;;;;5025586;28;20097;-73
2023/06/10 07:09:35;;;;;;;11.38;7.45;;;17.90;99.90;;;;;;5041096;28;20044;-73
2023/06/10 07:12:01;;;;;;;9.85;6.55;;;18.00;99.90;;;;;;5041490;28;20135;-74
2023/06/10 07:14:27;;;;;;;10.73;7.28;;;18.20;99.90;;;;;;5023672;28;20429;-73
2023/06/10 07:16:56;;;;;;;10.15;6.40;;;18.30;99.90;;;;;;5029639;28;20131;-72
2023/06/10 07:19:21;;;;;;;10.13;6.75;;;18.40;99.90;;;;;;5044475;28;20040;-74
2023/06/10 07:21:47;;;;;;;10.80;6.30;;;18.60;99.90;;;;;;5026247;28;20055;-73
2023/06/10 07:24:13;;;;;;;11.07;6.57;;;18.60;99.90;;;;;;5044927;28;20063;-70
2023/06/10 07:26:39;;;;;;;11.88;7.53;;;18.70;99.90;;;;;;5026559;28;20040;-70
2023/06/10 07:29:05;;;;;;;10.52;7.05;;;18.80;99.90;;;;;;5023734;28;20044;-70
2023/06/10 07:31:30;;;;;;;12.35;7.38;;;18.90;99.90;;;;;;5027201;28;20525;-69
2023/06/10 07:33:56;;;;;;;11.40;6.85;;;19.00;99.90;;;;;;5044970;28;20512;-71
2023/06/10 07:36:22;;;;;;;9.00;6.53;;;19.00;99.90;;;;;;5039337;28;20284;-70
2023/06/10 07:38:48;;;;;;;10.10;7.13;;;19.10;99.90;;;;;;5025890;28;20071;-70
2023/06/10 07:41:17;;;;;;;10.20;7.60;;;19.20;99.90;;;;;;5043321;28;20154;-70
2023/06/10 07:43:43;;;;;;;10.77;7.43;;;19.30;99.90;;;;;;5012879;28;20052;-70
2023/06/10 07:46:09;;;;;;;16.90;8.20;;;19.40;99.90;;;;;;5039236;28;20306;-71
2023/06/10 07:48:35;;;;;;;11.52;8.45;;;19.50;99.90;;;;;;5042884;28;20505;-71
2023/06/10 07:51:01;;;;;;;10.93;8.30;;;19.60;99.90;;;;;;5009197;28;20054;-70
2023/06/10 07:53:26;;;;;;;10.48;7.45;;;19.80;99.90;;;;;;5027304;28;20052;-70
2023/06/10 07:55:52;;;;;;;11.40;7.07;;;19.80;99.90;;;;;;5027832;28;20044;-70
2023/06/10 07:58:18;;;;;;;12.77;7.70;;;19.90;99.90;;;;;;5040950;28;20052;-70
2023/06/10 08:00:53;;;;;;;10.55;6.80;;;20.00;99.90;;;;;;5023370;28;20137;-70
2023/06/10 08:03:19;;;;;;;10.68;6.55;;;20.00;99.90;;;;;;5042416;28;20126;-70
2023/06/10 08:05:45;;;;;;;11.05;7.18;;;20.10;99.90;;;;;;5043057;28;21843;-70
2023/06/10 08:08:14;;;;;;;10.15;6.75;;;20.20;99.90;;;;;;5013050;28;20479;-70
2023/06/10 08:10:40;;;;;;;10.88;7.00;;;20.30;99.90;;;;;;5059111;28;20609;-70
2023/06/10 08:13:05;;;;;;;11.52;6.40;;;20.40;99.90;;;;;;4994471;28;20052;-70
2023/06/10 08:15:31;;;;;;;8.85;6.75;;;20.50;99.90;;;;;;5033532;28;20040;-70
2023/06/10 08:18:00;;;;;;;10.80;6.88;;;20.60;99.90;;;;;;5029323;28;21221;-71
2023/06/10 08:20:26;;;;;;;12.73;6.35;;;20.70;99.90;;;;;;5014048;28;20459;-70
2023/06/10 08:22:52;;;;;;;10.13;6.22;;;20.80;99.90;;;;;;5030757;28;20127;-70
2023/06/10 08:25:18;;;;;;;10.57;6.22;;;21.00;99.90;;;;;;5012215;28;21039;-70
2023/06/10 08:27:44;;;;;;;13.98;6.50;;;21.00;99.90;;;;;;5011113;28;20040;-71
2023/06/10 08:30:10;;;;;;;9.52;5.85;;;21.10;99.90;;;;;;4998982;28;20725;-70
2023/06/10 08:32:36;;;;;;;8.38;6.07;;;21.20;99.90;;;;;;4996163;28;20104;-72
2023/06/10 08:35:03;;;;;;;9.00;6.00;;;21.30;99.70;;;;;;5015160;28;20519;-72
2023/06/10 08:37:29;;;;;;;10.05;5.63;;;21.40;99.00;;;;;;4994332;28;20040;-71
2023/06/10 08:39:55;;;;;;;8.73;5.82;;;21.50;98.50;;;;;;5029119;28;20098;-71
2023/06/10 08:42:38;;;;;;;9.00;4.93;;;21.60;97.70;;;;;;5009360;28;20060;-71
2023/06/10 08:45:07;;;;;;;9.80;5.85;;;21.70;97.20;;;;;;5028325;28;20080;-71
2023/06/10 08:47:38;;;;;;;9.93;5.47;;;21.80;96.80;;;;;;5012471;28;20033;-71
2023/06/10 08:50:04;;;;;;;8.63;5.15;;;21.90;95.40;;;;;;5025095;28;20408;-71
2023/06/10 08:52:39;;;;;;;8.13;5.55;;;22.00;94.10;;;;;;5011788;28;20051;-71
2023/06/10 08:55:19;;;;;;;9.07;5.53;;;22.10;94.20;;;;;;5010441;28;20094;-72
2023/06/10 08:57:47;;;;;;;9.38;5.38;;;22.30;93.90;;;;;;5027899;28;20452;-71
2023/06/10 09:00:15;;;;;;;7.22;5.72;;;22.40;93.00;;;;;;5025065;28;20190;-70
2023/06/10 09:02:44;;;;;;;7.50;5.50;;;22.40;92.70;;;;;;5028971;28;20040;-71
2023/06/10 09:05:10;;;;;;;7.60;5.20;;;22.40;92.70;;;;;;5012118;28;20052;-71
2023/06/10 09:07:37;;;;;;;9.07;5.38;;;22.60;90.70;;;;;;5043768;28;20982;-70
2023/06/10 09:10:06;;;;;;;7.88;5.45;;;22.50;90.40;;;;;;4997323;28;20094;-70
2023/06/10 09:12:35;;;;;;;7.85;5.50;;;22.60;90.20;;;;;;5043905;28;21396;-70
2023/06/10 09:15:04;;;;;;;6.57;4.80;;;22.60;90.40;;;;;;5011592;28;20492;-71
2023/06/10 09:17:31;;;;;;;7.22;4.88;;;22.70;90.50;;;;;;5026007;28;20110;-71
2023/06/10 09:19:57;;;;;;;7.28;4.88;;;22.80;88.80;;;;;;5011849;28;20047;-70
2023/06/10 09:22:24;;;;;;;8.73;5.65;;;22.90;87.10;;;;;;4996049;28;20056;-71
2023/06/10 09:24:50;;;;;;;6.43;4.80;;;23.00;85.00;;;;;;5028734;28;20045;-70
2023/06/10 09:27:15;;;;;;;9.98;5.28;;;23.00;84.00;;;;;;4994461;28;20032;-70
2023/06/10 09:29:52;;;;;;;6.60;5.20;;;23.00;85.50;;;;;;5027607;28;20230;-71
2023/06/10 09:32:18;;;;;;;7.35;4.78;;;23.10;86.60;;;;;;5025986;28;20048;-71
2023/06/10 09:34:45;;;;;;;7.78;5.00;;;23.30;83.30;;;;;;5026494;28;20493;-70
2023/06/10 09:37:19;;;;;;;6.47;4.65;;;23.40;81.70;;;;;;5026066;28;20501;-71
2023/06/10 09:40:05;;;;;;;6.85;4.57;;;23.50;78.20;;;;;;4998093;28;20050;-70
2023/06/10 09:42:35;;;;;;;6.65;4.63;;;23.60;76.00;;;;;;5028184;28;20493;-70
2023/06/10 09:45:02;;;;;;;8.30;4.82;;;23.60;78.20;;;;;;5029178;28;20060;-70
2023/06/10 09:47:28;;;;;;;7.75;4.45;;;23.70;78.40;;;;;;5032525;28;20067;-71
2023/06/10 09:49:54;;;;;;;6.43;4.15;;;23.80;74.40;;;;;;5030040;28;20428;-70
2023/06/10 09:52:25;;;;;;;6.68;4.07;;;23.90;73.20;;;;;;5015220;28;20044;-70
2023/06/10 09:54:52;;;;;;;8.13;4.80;;;24.00;72.30;;;;;;5015232;28;20043;-71
2023/06/10 09:57:19;;;;;;;7.45;4.38;;;24.10;71.30;;;;;;5015631;28;20064;-70
2023/06/10 09:59:46;;;;;;;7.78;3.80;;;24.20;68.90;;;;;;5014293;28;20044;-71
2023/06/10 10:02:15;;;;;;;8.15;4.30;;;24.30;67.70;;;;;;5015866;28;20402;-71
2023/06/10 10:04:42;;;;;;;7.10;3.92;;;24.40;67.20;;;;;;5029307;28;20348;-70
2023/06/10 10:07:09;;;;;;;7.72;4.40;;;24.40;66.10;;;;;;4997609;28;20328;-70
2023/06/10 10:09:39;;;;;;;8.02;4.63;;;24.50;64.70;;;;;;5013191;28;20049;-70
2023/06/10 10:12:15;;;;;;;6.75;3.58;;;24.50;65.90;;;;;;4997739;28;20084;-70
2023/06/10 10:14:47;;;;;;;9.77;4.20;;;24.60;66.50;;;;;;5018105;28;20060;-70
2023/06/10 10:17:15;;;;;;;6.95;4.00;;;24.80;65.60;;;;;;5050176;28;20073;-71
2023/06/10 10:19:48;;;;;;;5.43;3.38;;;24.90;63.00;;;;;;5051104;28;20055;-70
2023/06/10 10:22:35;;;;;;;7.75;3.85;;;25.00;62.70;;;;;;5049614;28;20059;-71
2023/06/10 10:25:04;;;;;;;6.13;3.53;;;25.10;62.00;;;;;;5049788;28;20062;-71
2023/06/10 10:27:39;;;;;;;7.65;4.15;;;25.20;64.20;;;;;;5047435;28;20488;-71
2023/06/10 10:30:09;;;;;;;6.00;3.65;;;25.40;63.20;;;;;;5050631;28;20036;-70
2023/06/10 10:32:40;;;;;;;9.10;4.25;;;25.50;61.80;;;;;;5048577;28;20056;-70
2023/06/10 10:35:16;;;;;;;5.85;3.92;;;25.60;62.00;;;;;;5032460;28;20283;-70
2023/06/10 10:37:42;;;;;;;6.22;3.88;;;25.70;63.90;;;;;;5047105;28;20796;-70
2023/06/10 10:40:10;;;;;;;7.05;3.75;;;25.80;62.20;;;;;;5049351;28;20069;-70
2023/06/10 10:42:36;;;;;;;6.85;3.63;;;25.80;61.30;;;;;;5051261;28;20071;-70
2023/06/10 10:45:07;;;;;;;5.32;3.65;;;25.90;59.50;;;;;;5017850;28;20157;-71
2023/06/10 10:47:35;;;;;;;4.90;3.15;;;25.90;59.80;;;;;;5047385;28;20573;-69
2023/06/10 10:50:01;;;;;;;5.65;3.30;;;26.00;59.50;;;;;;5048699;28;20115;-70
2023/06/10 10:52:53;;;;;;;6.05;3.20;;;26.10;58.40;;;;;;5048519;28;20377;-70
2023/06/10 10:55:19;;;;;;;8.65;3.63;;;26.10;56.60;;;;;;5031572;28;20186;-71
2023/06/10 10:57:55;;;;;;;5.50;3.22;;;26.10;56.00;;;;;;5024332;28;20054;-71
2023/06/10 11:00:44;;;;;;;4.63;3.03;;;26.10;56.40;;;;;;5044894;28;20486;-70
2023/06/10 11:03:18;;;;;;;5.80;3.45;;;26.10;56.70;;;;;;5036224;28;20051;-70
2023/06/10 11:05:49;;;;;;;6.43;3.63;;;26.20;57.60;;;;;;5046610;28;20059;-70
2023/06/10 11:08:43;;;;;;;6.03;3.38;;;26.30;58.90;;;;;;5049024;28;20282;-70
2023/06/10 11:11:25;;;;;;;5.72;3.30;;;26.40;56.30;;;;;;5042473;28;20511;-71
2023/06/10 11:14:06;;;;;;;7.43;3.92;;;26.60;56.90;;;;;;5034362;28;20712;-71
2023/06/10 11:16:43;;;;;;;7.05;3.65;;;26.70;58.10;;;;;;5049209;28;20052;-70
2023/06/10 11:19:09;;;;;;;5.38;3.20;;;26.80;57.50;;;;;;5051748;28;20145;-71
2023/06/10 11:22:01;;;;;;;4.70;3.22;;;26.90;55.90;;;;;;5032961;28;20499;-71
2023/06/10 11:24:28;;;;;;;6.68;3.15;;;27.00;56.20;;;;;;5031676;28;20510;-71
2023/06/10 11:26:54;;;;;;;5.70;3.35;;;27.00;57.20;;;;;;5031484;28;20092;-70
2023/06/10 11:29:20;;;;;;;5.47;2.97;;;27.00;54.80;;;;;;5048818;28;20348;-71
2023/06/10 11:31:50;;;;;;;6.30;3.45;;;27.00;55.60;;;;;;5048127;28;20079;-71
2023/06/10 11:34:23;;;;;;;4.70;3.00;;;27.10;55.10;;;;;;5032517;28;20109;-70
2023/06/10 11:36:49;;;;;;;5.43;3.15;;;27.10;52.80;;;;;;5027261;28;20039;-71
2023/06/10 11:39:15;;;;;;;5.85;3.47;;;27.00;53.60;;;;;;5032290;28;20440;-71
2023/06/10 11:41:44;;;;;;;6.22;3.30;;;27.00;54.10;;;;;;5031081;28;20029;-70
2023/06/10 11:44:14;;;;;;;6.47;3.30;;;27.00;53.60;;;;;;5064645;28;20082;-71
2023/06/10 11:46:42;;;;;;;5.72;2.85;;;27.10;52.80;;;;;;5060392;28;20131;-71
2023/06/10 11:49:08;;;;;;;5.88;2.85;;;27.10;51.40;;;;;;5049565;28;20139;-70
2023/06/10 11:51:48;;;;;;;7.00;3.42;;;27.10;52.00;;;;;;5029680;28;20044;-71
2023/06/10 11:54:15;;;;;;;5.82;3.08;;;27.20;54.10;;;;;;5018144;28;20052;-70
2023/06/10 11:56:42;;;;;;;5.80;3.25;;;27.30;53.40;;;;;;5031931;28;20059;-71
2023/06/10 11:59:07;;;;;;;5.15;2.85;;;27.40;53.90;;;;;;5048243;28;20051;-70
2023/06/10 12:01:36;;;;;;;5.40;3.15;;;27.50;51.80;;;;;;5047571;28;21635;-71
2023/06/10 12:04:05;;;;;;;5.45;3.00;;;27.50;51.20;;;;;;5033607;28;20040;-70
2023/06/10 12:06:48;;;;;;;4.70;3.10;;;27.60;50.90;;;;;;5048317;28;20058;-71
2023/06/10 12:09:28;;;;;;;5.88;2.83;;;27.60;52.30;;;;;;5061410;28;20284;-71
2023/06/10 12:12:02;;;;;;;7.60;3.42;;;27.60;50.60;;;;;;5018685;28;20036;-70
2023/06/10 12:14:57;;;;;;;6.18;2.88;;;27.60;51.60;;;;;;5046901;28;20785;-71
2023/06/10 12:17:32;;;;;;;5.13;2.97;;;27.50;50.50;;;;;;5046189;28;20059;-70
2023/06/10 12:20:04;;;;;;;6.70;3.17;;;27.50;50.70;;;;;;5047826;28;20101;-70
2023/06/10 12:22:41;;;;;;;4.63;2.63;;;27.40;50.70;;;;;;5028680;28;20048;-75
2023/06/10 12:25:13;;;;;;;6.20;2.95;;;27.50;51.10;;;;;;5050301;28;20090;-75
2023/06/10 12:27:49;;;;;;;5.22;2.75;;;27.60;51.50;;;;;;5047022;28;20086;-75
2023/06/10 12:30:19;;;;;;;5.22;2.47;;;27.60;48.90;;;;;;5048340;28;20806;-74
2023/06/10 12:32:47;;;;;;;6.60;3.20;;;27.40;49.40;;;;;;5030521;28;20108;-75
2023/06/10 12:35:24;;;;;;;5.20;2.78;;;27.50;51.30;;;;;;5044714;28;20055;-75
2023/06/10 12:37:57;;;;;;;4.60;2.83;;;27.50;50.60;;;;;;5031020;28;20055;-74
2023/06/10 12:40:44;;;;;;;3.95;2.50;;;27.50;51.90;;;;;;5050190;28;20052;-75
2023/06/10 12:43:10;;;;;;;5.05;2.70;;;27.70;53.00;;;;;;5047593;28;20048;-75
2023/06/10 12:45:44;;;;;;;5.72;2.67;;;27.80;50.00;;;;;;5015349;28;20040;-74
2023/06/10 12:48:24;;;;;;;5.40;2.60;;;27.90;50.70;;;;;;5048926;28;20137;-74